Time;durP1;ratioP1;P1;durP2;ratioP2;P2;SDS_P1;SDS_P2;PMS_P1;PMS_P2;Temp;Humidity;BMP_temperature;BMP_pressure;BME280_temperature;BME280_humidity;BME280_pressure;Samples;Min_cycle;Max_cycle;Signal;HPM_P1;HPM_P2
2022/10/09 00:01:23;;;;;;;;;;;9.70;99.90;;;;;;5020284;28;19947;-93
2022/10/09 00:03:56;;;;;;;;;;;9.10;99.90;;;;;;5021548;28;19925;-93
2022/10/09 00:06:32;;;;;;;;;;;9.20;99.90;;;;;;5037068;28;19920;-92
2022/10/09 00:09:01;;;;;;;;;;;9.80;99.90;;;;;;5056429;28;19970;-93
2022/10/09 00:11:27;;;;;;;;;;;9.20;99.90;;;;;;5020355;28;20394;-94
2022/10/09 00:13:54;;;;;;;;;;;9.20;99.90;;;;;;5022604;28;19943;-94
2022/10/09 00:16:20;;;;;;;;;;;9.20;99.90;;;;;;5006390;28;19942;-94
2022/10/09 00:18:47;;;;;;;;;;;9.10;99.90;;;;;;5025328;28;19928;-93
2022/10/09 00:21:18;;;;;;;;;;;9.40;99.90;;;;;;5045136;28;19921;-95
2022/10/09 00:23:45;;;;;;;;;;;10.50;99.90;;;;;;5039806;28;19931;-93
2022/10/09 00:26:11;;;;;;;;;;;7.90;99.90;;;;;;5013487;28;19921;-94
2022/10/09 00:28:36;;;;;;;;;;;9.10;99.90;;;;;;5044812;28;19947;-94
2022/10/09 00:31:08;;;;;;;;;;;9.10;99.90;;;;;;5035538;28;20010;-93
2022/10/09 00:33:34;;;;;;;;;;;9.50;99.90;;;;;;5032438;28;19928;-92
2022/10/09 00:36:04;;;;;;;;;;;9.00;99.90;;;;;;5036965;28;19928;-94
2022/10/09 00:38:30;;;;;;;;;;;9.10;99.90;;;;;;5051570;28;19927;-94
2022/10/09 00:40:55;;;;;;;;;;;9.00;99.90;;;;;;5011336;28;19921;-93
2022/10/09 00:43:40;;;;;;;;;;;9.00;99.90;;;;;;5034682;28;19920;-93
2022/10/09 00:46:05;;;;;;;;;;;9.00;99.90;;;;;;5023492;28;19970;-93
2022/10/09 00:48:32;;;;;;;;;;;9.60;99.90;;;;;;5022140;28;19931;-94
2022/10/09 00:50:58;;;;;;;;;;;8.90;99.90;;;;;;5020921;28;20083;-93
2022/10/09 00:53:25;;;;;;;;;;;10.20;99.90;;;;;;5006441;28;20334;-93
2022/10/09 00:55:51;;;;;;;;;;;9.80;99.90;;;;;;5008840;28;19921;-94
2022/10/09 00:58:17;;;;;;;;;;;8.90;99.90;;;;;;5025173;28;20360;-94
2022/10/09 01:00:43;;;;;;;;;;;8.90;99.90;;;;;;5022769;28;19920;-94
2022/10/09 01:03:09;;;;;;;;;;;10.00;99.90;;;;;;5005919;28;19925;-95
2022/10/09 01:06:00;;;;;;;;;;;8.90;99.90;;;;;;5008115;28;19920;-93
2022/10/09 01:08:32;;;;;;;;;;;8.90;99.90;;;;;;5014382;28;19921;-93
2022/10/09 01:11:11;;;;;;;;;;;8.90;99.90;;;;;;5040341;28;19927;-94
2022/10/09 01:13:52;;;;;;;;;;;8.90;99.90;;;;;;5023896;28;20323;-94
2022/10/09 01:16:25;;;;;;;;;;;8.90;99.90;;;;;;5021833;28;19921;-93
2022/10/09 01:18:51;;;;;;;;;;;8.90;99.90;;;;;;5023086;28;19921;-94
2022/10/09 01:21:25;;;;;;;;;;;8.90;99.90;;;;;;5021232;28;19944;-93
2022/10/09 01:24:08;;;;;;;;;;;10.30;99.90;;;;;;5004239;28;19921;-94
2022/10/09 01:26:52;;;;;;;;;;;8.90;99.90;;;;;;5020275;28;19921;-94
2022/10/09 01:29:18;;;;;;;;;;;8.80;99.90;;;;;;5019320;28;19920;-95
2022/10/09 01:31:46;;;;;;;;;;;8.90;99.90;;;;;;5020006;28;19974;-92
2022/10/09 01:34:13;;;;;;;;;;;8.80;99.90;;;;;;5017990;28;19927;-94
2022/10/09 01:36:38;;;;;;;;;;;8.80;99.90;;;;;;5019727;28;19924;-94
2022/10/09 01:39:05;;;;;;;;;;;9.70;99.90;;;;;;5002159;28;19927;-92
2022/10/09 01:41:36;;;;;;;;;;;8.80;99.90;;;;;;5036448;28;19921;-89
2022/10/09 01:44:02;;;;;;;;;;;8.80;99.90;;;;;;5003648;28;19960;-93
2022/10/09 01:46:31;;;;;;;;;;;9.00;99.90;;;;;;5036942;28;19928;-92
2022/10/09 01:49:16;;;;;;;;;;;8.70;99.90;;;;;;5021372;28;20007;-92
2022/10/09 01:51:51;;;;;;;;;;;8.70;99.90;;;;;;5020684;28;19921;-92
2022/10/09 01:54:20;;;;;;;;;;;8.70;99.90;;;;;;5017375;28;19927;-95
2022/10/09 01:56:46;;;;;;;;;;;8.60;99.90;;;;;;5023646;28;19959;-94
2022/10/09 01:59:14;;;;;;;;;;;9.40;99.90;;;;;;5018822;28;19924;-93
2022/10/09 02:01:49;;;;;;;;;;;8.60;99.90;;;;;;5036816;28;20252;-89
2022/10/09 02:04:16;;;;;;;;;;;8.50;99.90;;;;;;5015841;28;19928;-94
2022/10/09 02:06:43;;;;;;;;;;;8.50;99.90;;;;;;5019278;28;19943;-94
2022/10/09 02:09:12;;;;;;;;;;;8.50;99.90;;;;;;5049573;28;20320;-94
2022/10/09 02:11:39;;;;;;;;;;;8.60;99.90;;;;;;5035831;28;20055;-92
2022/10/09 02:14:05;;;;;;;;;;;8.40;99.90;;;;;;5035643;28;19932;-93
2022/10/09 02:16:38;;;;;;;;;;;9.50;99.90;;;;;;5033899;28;19991;-91
2022/10/09 02:19:26;;;;;;;;;;;9.40;99.90;;;;;;5032529;28;20155;-92
2022/10/09 02:21:54;;;;;;;;;;;8.40;99.90;;;;;;5028247;28;19925;-95
2022/10/09 02:24:21;;;;;;;;;;;8.40;99.90;;;;;;5022805;28;19951;-92
2022/10/09 02:26:46;;;;;;;;;;;8.60;99.90;;;;;;5013960;28;19920;-93
2022/10/09 02:29:13;;;;;;;;;;;8.60;99.90;;;;;;4998105;28;19921;-93
2022/10/09 02:31:39;;;;;;;;;;;9.60;99.90;;;;;;5017370;28;19982;-94
2022/10/09 02:34:07;;;;;;;;;;;9.40;99.90;;;;;;5015031;28;20362;-93
2022/10/09 02:36:33;;;;;;;;;;;8.40;99.90;;;;;;5014260;28;19988;-93
2022/10/09 02:39:00;;;;;;;;;;;8.90;99.90;;;;;;5030231;28;20028;-94
2022/10/09 02:41:25;;;;;;;;;;;8.30;99.90;;;;;;5031192;28;19921;-94
2022/10/09 02:43:51;;;;;;;;;;;8.30;99.90;;;;;;5013353;28;19921;-94
2022/10/09 02:46:23;;;;;;;;;;;8.20;99.90;;;;;;5014327;28;20442;-92
2022/10/09 02:48:48;;;;;;;;;;;8.20;99.90;;;;;;5014177;28;20004;-92
2022/10/09 02:51:16;;;;;;;;;;;8.20;99.90;;;;;;5012263;28;19921;-94
2022/10/09 02:53:45;;;;;;;;;;;8.60;99.90;;;;;;5031961;28;19921;-94
2022/10/09 02:56:14;;;;;;;;;;;8.10;99.90;;;;;;5029705;28;19921;-93
2022/10/09 02:58:39;;;;;;;;;;;8.10;99.90;;;;;;4998059;28;19928;-91
2022/10/09 03:01:05;;;;;;;;;;;8.20;99.90;;;;;;5013021;28;19927;-92
2022/10/09 03:03:31;;;;;;;;;;;8.10;99.90;;;;;;5030103;28;19921;-92
2022/10/09 03:06:10;;;;;;;;;;;8.40;99.90;;;;;;5014952;28;19967;-92
2022/10/09 03:08:36;;;;;;;;;;;8.10;99.90;;;;;;5012176;28;19920;-91
2022/10/09 03:11:02;;;;;;;;;;;8.10;99.90;;;;;;4997813;28;19928;-93
2022/10/09 03:13:27;;;;;;;;;;;8.10;99.90;;;;;;4992357;28;20023;-92
2022/10/09 03:16:00;;;;;;;;;;;8.80;99.90;;;;;;4977217;28;19928;-92
2022/10/09 03:18:32;;;;;;;;;;;8.10;99.90;;;;;;4977232;28;20405;-93
2022/10/09 03:20:57;;;;;;;;;;;8.10;99.90;;;;;;4976901;28;19921;-92
2022/10/09 03:23:23;;;;;;;;;;;8.00;99.90;;;;;;4960144;28;19921;-92
2022/10/09 03:25:58;;;;;;;;;;;8.00;99.90;;;;;;4975924;28;19925;-93
2022/10/09 03:28:24;;;;;;;;;;;8.00;99.90;;;;;;4993082;28;19953;-93
2022/10/09 03:30:51;;;;;;;;;;;8.70;99.90;;;;;;4991743;28;20001;-93
2022/10/09 03:33:16;;;;;;;;;;;8.00;99.90;;;;;;4960794;28;19922;-92
2022/10/09 03:35:42;;;;;;;;;;;8.40;99.90;;;;;;4976527;28;19983;-92
2022/10/09 03:38:09;;;;;;;;;;;7.90;99.90;;;;;;4976799;28;20427;-93
2022/10/09 03:40:35;;;;;;;;;;;7.90;99.90;;;;;;4959821;28;19921;-93
2022/10/09 03:43:01;;;;;;;;;;;7.90;99.90;;;;;;4959984;28;20017;-94
2022/10/09 03:45:26;;;;;;;;;;;8.80;99.90;;;;;;5009203;28;19928;-93
2022/10/09 03:47:52;;;;;;;;;;;9.00;99.90;;;;;;5012816;28;19921;-93
2022/10/09 03:50:22;;;;;;;;;;;8.90;99.90;;;;;;5029064;28;19921;-92
2022/10/09 03:52:47;;;;;;;;;;;7.90;99.90;;;;;;5028185;28;20050;-93
2022/10/09 03:55:16;;;;;;;;;;;9.30;99.90;;;;;;5012644;28;19965;-93
2022/10/09 03:57:42;;;;;;;;;;;9.10;99.90;;;;;;4994253;28;19928;-92
2022/10/09 04:00:07;;;;;;;;;;;8.00;99.90;;;;;;5011644;28;19928;-92
2022/10/09 04:02:34;;;;;;;;;;;7.80;99.90;;;;;;4995473;28;20493;-91
2022/10/09 04:04:59;;;;;;;;;;;8.60;99.90;;;;;;5011088;28;19920;-92
2022/10/09 04:07:25;;;;;;;;;;;7.80;99.90;;;;;;4994070;28;20293;-93
2022/10/09 04:09:50;;;;;;;;;;;8.20;99.90;;;;;;5012254;28;19967;-93
2022/10/09 04:12:16;;;;;;;;;;;7.90;99.90;;;;;;5027042;28;19921;-92
2022/10/09 04:14:42;;;;;;;;;;;8.30;99.90;;;;;;5011461;28;19920;-93
2022/10/09 04:17:07;;;;;;;;;;;8.60;99.90;;;;;;5011624;28;19967;-93
2022/10/09 04:19:33;;;;;;;;;;;8.90;99.90;;;;;;4994996;28;19921;-92
2022/10/09 04:21:58;;;;;;;;;;;9.20;99.90;;;;;;4995829;28;20434;-93
2022/10/09 04:24:24;;;;;;;;;;;9.20;99.90;;;;;;4996022;28;19921;-93
2022/10/09 04:26:50;;;;;;;;;;;7.90;99.90;;;;;;4995834;28;19921;-93
2022/10/09 04:29:16;;;;;;;;;;;7.90;99.90;;;;;;4978550;28;19921;-92
2022/10/09 04:31:42;;;;;;;;;;;7.90;99.90;;;;;;4999922;28;19927;-93
2022/10/09 04:34:08;;;;;;;;;;;7.90;99.90;;;;;;5015787;28;19971;-93
2022/10/09 04:36:34;;;;;;;;;;;7.80;99.90;;;;;;5000423;28;19921;-93
2022/10/09 04:39:01;;;;;;;;;;;7.80;99.90;;;;;;5002636;28;19928;-93
2022/10/09 04:41:26;;;;;;;;;;;7.80;99.90;;;;;;5011785;28;20304;-93
2022/10/09 04:43:58;;;;;;;;;;;8.20;99.90;;;;;;5012642;28;20084;-94
2022/10/09 04:46:24;;;;;;;;;;;7.70;99.90;;;;;;5027024;28;19921;-94
2022/10/09 04:48:49;;;;;;;;;;;7.60;99.90;;;;;;5005868;28;19929;-94
2022/10/09 04:51:17;;;;;;;;;;;7.90;99.90;;;;;;5004901;28;20000;-93
2022/10/09 04:53:44;;;;;;;;;;;7.50;99.90;;;;;;5021832;28;19921;-92
2022/10/09 04:56:13;;;;;;;;;;;7.40;99.90;;;;;;5017669;28;19968;-89
2022/10/09 04:58:42;;;;;;;;;;;7.30;99.90;;;;;;5035215;28;20377;-89
2022/10/09 05:01:12;;;;;;;;;;;8.60;99.90;;;;;;5032521;28;20393;-92
2022/10/09 05:03:42;;;;;;;;;;;7.20;99.90;;;;;;5033503;28;19921;-91
2022/10/09 05:06:09;;;;;;;;;;;8.30;99.90;;;;;;4996175;28;19932;-94
2022/10/09 05:08:35;;;;;;;;;;;7.90;99.90;;;;;;5013146;28;19921;-93
2022/10/09 05:11:20;;;;;;;;;;;7.20;99.90;;;;;;4980864;28;19928;-92
2022/10/09 05:13:47;;;;;;;;;;;7.10;99.90;;;;;;5010845;28;19928;-91
2022/10/09 05:16:14;;;;;;;;;;;7.10;99.90;;;;;;4977691;28;20377;-89
2022/10/09 05:18:40;;;;;;;;;;;7.90;99.90;;;;;;4977632;28;19921;-90
2022/10/09 05:21:06;;;;;;;;;;;7.10;99.90;;;;;;4982325;28;19921;-89
2022/10/09 05:23:35;;;;;;;;;;;7.10;99.90;;;;;;5001810;28;19943;-90
2022/10/09 05:26:05;;;;;;;;;;;7.10;99.90;;;;;;5018280;28;19977;-89
2022/10/09 05:28:31;;;;;;;;;;;7.10;99.90;;;;;;4985043;28;19921;-89
2022/10/09 05:30:58;;;;;;;;;;;7.40;99.90;;;;;;4985090;28;19921;-91
2022/10/09 05:33:24;;;;;;;;;;;8.20;99.90;;;;;;5000615;28;19931;-92
2022/10/09 05:35:56;;;;;;;;;;;8.10;99.90;;;;;;4969979;28;19925;-92
2022/10/09 05:38:26;;;;;;;;;;;7.10;99.90;;;;;;5036119;28;19932;-91
2022/10/09 05:41:11;;;;;;;;;;;7.10;99.90;;;;;;5019225;28;19921;-91
2022/10/09 05:43:40;;;;;;;;;;;7.10;99.90;;;;;;5019118;28;19921;-88
2022/10/09 05:46:24;;;;;;;;;;;7.00;99.90;;;;;;5021274;28;19921;-90
2022/10/09 05:48:54;;;;;;;;;;;7.10;99.90;;;;;;5024288;28;19996;-92
2022/10/09 05:51:21;;;;;;;;;;;7.10;99.90;;;;;;5039987;28;19963;-91
2022/10/09 05:53:47;;;;;;;;;;;7.20;99.90;;;;;;5021881;28;19943;-92
2022/10/09 05:56:26;;;;;;;;;;;7.20;99.90;;;;;;5035243;28;20435;-93
2022/10/09 05:58:53;;;;;;;;;;;7.20;99.90;;;;;;5022589;28;20355;-92
2022/10/09 06:01:19;;;;;;;;;;;7.20;99.90;;;;;;5035638;28;19924;-90
2022/10/09 06:03:58;;;;;;;;;;;7.10;99.90;;;;;;5019126;28;19921;-90
2022/10/09 06:06:25;;;;;;;;;;;7.00;99.90;;;;;;5020051;28;19931;-91
2022/10/09 06:08:51;;;;;;;;;;;7.00;99.90;;;;;;5033769;28;19944;-91
2022/10/09 06:11:18;;;;;;;;;;;7.00;99.90;;;;;;5003113;28;20384;-90
2022/10/09 06:13:44;;;;;;;;;;;6.90;99.90;;;;;;5021569;28;19923;-90
2022/10/09 06:16:11;;;;;;;;;;;6.90;99.90;;;;;;5027293;28;19975;-92
2022/10/09 06:18:38;;;;;;;;;;;7.70;99.90;;;;;;5025917;28;19920;-92
2022/10/09 06:21:04;;;;;;;;;;;6.90;99.90;;;;;;5029064;28;19920;-92
2022/10/09 06:23:30;;;;;;;;;;;6.90;99.90;;;;;;5023384;28;19962;-92
2022/10/09 06:25:58;;;;;;;;;;;6.90;99.90;;;;;;5022605;28;19928;-91
2022/10/09 06:28:23;;;;;;;;;;;7.00;99.90;;;;;;5022663;28;19921;-92
2022/10/09 06:30:52;;;;;;;;;;;7.00;99.90;;;;;;5054190;28;19970;-92
2022/10/09 06:33:18;;;;;;;;;;;7.10;99.90;;;;;;5021179;28;20376;-91
2022/10/09 06:35:44;;;;;;;;;;;7.10;99.90;;;;;;5018572;28;19980;-92
2022/10/09 06:38:16;;;;;;;;;;;7.10;99.90;;;;;;5005125;28;19927;-90
2022/10/09 06:40:42;;;;;;;;;;;8.00;99.90;;;;;;5000904;28;20415;-89
2022/10/09 06:43:08;;;;;;;;;;;7.50;99.90;;;;;;5001663;28;19932;-89
2022/10/09 06:45:35;;;;;;;;;;;7.20;99.90;;;;;;5018438;28;19921;-90
2022/10/09 06:48:01;;;;;;;;;;;7.60;99.90;;;;;;5032837;28;19920;-91
2022/10/09 06:50:26;;;;;;;;;;;7.20;99.90;;;;;;5001941;28;19943;-89
2022/10/09 06:52:52;;;;;;;;;;;7.30;99.90;;;;;;5015468;28;19928;-89
2022/10/09 06:55:20;;;;;;;;;;;7.30;99.90;;;;;;5002227;28;19924;-90
2022/10/09 06:57:46;;;;;;;;;;;8.50;99.90;;;;;;4999842;28;19921;-90
2022/10/09 07:00:12;;;;;;;;;;;8.80;99.90;;;;;;5015295;28;19928;-89
2022/10/09 07:02:37;;;;;;;;;;;7.60;99.90;;;;;;4997876;28;19932;-89
2022/10/09 07:05:03;;;;;;;;;;;7.70;99.90;;;;;;4999099;28;19920;-88
2022/10/09 07:07:29;;;;;;;;;;;7.80;99.90;;;;;;4999107;28;19920;-89
2022/10/09 07:09:55;;;;;;;;;;;7.90;99.90;;;;;;4997658;28;19965;-90
2022/10/09 07:12:20;;;;;;;;;;;8.90;99.90;;;;;;4999810;28;19921;-90
2022/10/09 07:14:46;;;;;;;;;;;6.90;99.90;;;;;;5014545;28;19920;-91
2022/10/09 07:17:11;;;;;;;;;;;8.20;99.90;;;;;;5016336;28;20360;-90
2022/10/09 07:19:37;;;;;;;;;;;8.30;99.90;;;;;;5014807;28;19920;-90
2022/10/09 07:22:03;;;;;;;;;;;8.40;99.90;;;;;;5015089;28;19927;-89
2022/10/09 07:24:28;;;;;;;;;;;8.50;99.90;;;;;;4998804;28;19925;-90
2022/10/09 07:26:56;;;;;;;;;;;8.60;99.90;;;;;;5015632;28;19921;-89
2022/10/09 07:29:21;;;;;;;;;;;9.70;99.90;;;;;;5000798;28;19999;-90
2022/10/09 07:31:48;;;;;;;;;;;8.70;99.90;;;;;;5000771;28;19967;-93
2022/10/09 07:34:14;;;;;;;;;;;8.80;99.90;;;;;;5006167;28;19927;-94
2022/10/09 07:36:40;;;;;;;;;;;8.90;99.90;;;;;;5006075;28;19983;-95
2022/10/09 07:39:07;;;;;;;;;;;9.00;99.90;;;;;;5023292;28;20183;-95
2022/10/09 07:41:32;;;;;;;;;;;9.10;99.90;;;;;;5027859;28;19936;-96
2022/10/09 07:43:58;;;;;;;;;;;9.30;99.90;;;;;;5027784;28;19925;-94
2022/10/09 07:46:24;;;;;;;;;;;8.90;99.90;;;;;;5024876;28;20058;-95
2022/10/09 07:48:51;;;;;;;;;;;10.90;99.90;;;;;;5012072;28;19920;-94
2022/10/09 07:51:24;;;;;;;;;;;9.90;99.90;;;;;;5010267;28;19991;-96
2022/10/09 07:53:50;;;;;;;;;;;9.20;99.90;;;;;;5028769;28;19932;-96
2022/10/09 07:56:24;;;;;;;;;;;10.60;99.90;;;;;;5044311;28;19921;-94
2022/10/09 07:58:54;;;;;;;;;;;10.80;99.90;;;;;;5025953;28;19920;-95
2022/10/09 08:01:21;;;;;;;;;;;11.10;99.90;;;;;;5049121;28;19927;-94
2022/10/09 08:03:47;;;;;;;;;;;11.20;99.90;;;;;;5023633;28;19920;-93
2022/10/09 08:06:13;;;;;;;;;;;11.40;99.90;;;;;;5022467;28;20418;-90
2022/10/09 08:08:41;;;;;;;;;;;11.30;99.90;;;;;;5020673;28;19929;-90
2022/10/09 08:11:11;;;;;;;;;;;10.30;99.90;;;;;;5014268;28;19928;-89
2022/10/09 08:13:36;;;;;;;;;;;11.30;99.90;;;;;;5015658;28;19927;-88
2022/10/09 08:16:02;;;;;;;;;;;12.60;99.90;;;;;;5013305;28;19920;-88
2022/10/09 08:18:27;;;;;;;;;;;12.70;99.90;;;;;;5014935;28;20047;-90
2022/10/09 08:20:57;;;;;;;;;;;11.40;99.90;;;;;;4995595;28;19943;-89
2022/10/09 08:23:23;;;;;;;;;;;11.40;99.90;;;;;;5012621;28;19921;-87
2022/10/09 08:25:49;;;;;;;;;;;11.50;99.90;;;;;;5014106;28;19969;-88
2022/10/09 08:28:15;;;;;;;;;;;11.60;99.90;;;;;;4994901;28;19927;-87
2022/10/09 08:30:40;;;;;;;;;;;11.60;99.90;;;;;;4997302;28;19921;-90
2022/10/09 08:33:06;;;;;;;;;;;11.70;99.90;;;;;;4996470;28;20043;-90
2022/10/09 08:35:31;;;;;;;;;;;11.80;99.90;;;;;;5011885;28;20406;-85
2022/10/09 08:37:57;;;;;;;;;;;11.90;99.90;;;;;;5011521;28;19975;-87
2022/10/09 08:40:28;;;;;;;;;;;12.00;99.90;;;;;;5029022;28;19927;-87
2022/10/09 08:42:57;;;;;;;;;;;12.10;99.90;;;;;;5013996;28;19975;-88
2022/10/09 08:45:23;;;;;;;;;;;12.20;99.90;;;;;;5028840;28;20331;-92
2022/10/09 08:47:55;;;;;;;;;;;12.20;99.90;;;;;;5007188;28;19988;-94
2022/10/09 08:50:24;;;;;;;;;;;12.40;99.90;;;;;;5018979;28;20354;-93
2022/10/09 08:53:06;;;;;;;;;;;12.40;99.90;;;;;;5021732;28;19952;-96
2022/10/09 08:55:34;;;;;;;;;;;11.50;99.90;;;;;;5024388;28;19924;-90
2022/10/09 08:58:03;;;;;;;;;;;12.50;99.90;;;;;;5047427;28;19927;-95
2022/10/09 09:00:38;;;;;;;;;;;12.60;99.90;;;;;;5032372;28;19964;-91
2022/10/09 09:03:16;;;;;;;;;;;12.60;99.90;;;;;;5022913;28;20260;-91
2022/10/09 09:05:56;;;;;;;;;;;12.70;99.90;;;;;;5027385;28;20494;-94
2022/10/09 09:08:24;;;;;;;;;;;12.80;99.90;;;;;;5019575;28;19921;-91
2022/10/09 09:11:08;;;;;;;;;;;12.50;99.90;;;;;;5018252;28;19925;-89
2022/10/09 09:13:49;;;;;;;;;;;12.90;99.90;;;;;;5015974;28;19920;-90
2022/10/09 09:16:18;;;;;;;;;;;12.60;99.90;;;;;;5020568;28;19920;-95
2022/10/09 09:18:43;;;;;;;;;;;13.00;99.90;;;;;;5019903;28;20023;-91
2022/10/09 09:21:12;;;;;;;;;;;13.10;99.90;;;;;;5018235;28;19972;-94
2022/10/09 09:23:41;;;;;;;;;;;13.10;99.90;;;;;;5020135;28;20371;-86
2022/10/09 09:26:17;;;;;;;;;;;13.20;99.90;;;;;;5015716;28;19928;-87
2022/10/09 09:28:43;;;;;;;;;;;13.30;99.90;;;;;;5015529;28;20363;-89
2022/10/09 09:31:22;;;;;;;;;;;13.80;99.90;;;;;;5016577;28;20384;-96
2022/10/09 09:33:57;;;;;;;;;;;13.40;99.90;;;;;;5014203;28;19921;-86
2022/10/09 09:36:30;;;;;;;;;;;13.50;99.90;;;;;;5021382;28;19967;-86
2022/10/09 09:38:56;;;;;;;;;;;13.60;99.90;;;;;;5010391;28;19947;-89
2022/10/09 09:41:21;;;;;;;;;;;13.70;99.90;;;;;;5016801;28;19921;-83
2022/10/09 09:43:47;;;;;;;;;;;13.70;99.90;;;;;;5014295;28;19921;-86
2022/10/09 09:46:24;;;;;;;;;;;13.70;99.90;;;;;;5029995;28;20011;-90
2022/10/09 09:48:50;;;;;;;;;;;13.80;99.90;;;;;;5038431;28;20338;-91
2022/10/09 09:51:19;;;;;;;;;;;13.90;99.90;;;;;;5015416;28;19921;-92
2022/10/09 09:53:47;;;;;;;;;;;14.00;99.90;;;;;;5018057;28;20014;-94
2022/10/09 09:56:12;;;;;;;;;;;14.00;99.90;;;;;;5017506;28;19921;-92
2022/10/09 09:58:43;;;;;;;;;;;14.10;99.90;;;;;;5017786;28;20371;-88
2022/10/09 10:01:25;;;;;;;;;;;14.10;99.90;;;;;;5014826;28;20303;-90
2022/10/09 10:03:52;;;;;;;;;;;13.70;99.90;;;;;;5012228;28;19979;-89
2022/10/09 10:06:28;;;;;;;;;;;15.00;99.90;;;;;;5013993;28;19986;-87
2022/10/09 10:08:58;;;;;;;;;;;14.20;99.90;;;;;;5028734;28;20330;-87
2022/10/09 10:11:24;;;;;;;;;;;14.20;99.90;;;;;;5030073;28;19928;-89
2022/10/09 10:13:49;;;;;;;;;;;14.30;99.90;;;;;;4996101;28;20295;-88
2022/10/09 10:16:23;;;;;;;;;;;14.40;99.90;;;;;;4999144;28;20011;-90
2022/10/09 10:18:49;;;;;;;;;;;13.90;99.90;;;;;;5031896;28;19924;-89
2022/10/09 10:21:16;;;;;;;;;;;14.40;99.90;;;;;;4997800;28;20011;-87
2022/10/09 10:23:50;;;;;;;;;;;14.50;99.90;;;;;;5016380;28;20368;-90
2022/10/09 10:26:35;;;;;;;;;;;14.50;99.90;;;;;;5029314;28;19921;-87
2022/10/09 10:29:01;;;;;;;;;;;14.50;99.90;;;;;;5048442;28;19920;-87
2022/10/09 10:31:46;;;;;;;;;;;14.50;99.90;;;;;;5012187;28;19920;-87
2022/10/09 10:34:32;;;;;;;;;;;14.50;99.90;;;;;;5012996;28;19920;-85
2022/10/09 10:37:13;;;;;;;;;;;14.60;99.90;;;;;;5013941;28;19927;-85
2022/10/09 10:39:41;;;;;;;;;;;14.60;99.90;;;;;;5029448;28;19944;-86
2022/10/09 10:42:13;;;;;;;;;;;14.70;99.90;;;;;;5031606;28;19927;-91
2022/10/09 10:44:47;;;;;;;;;;;14.70;99.90;;;;;;5017180;28;19978;-87
2022/10/09 10:47:25;;;;;;;;;;;14.70;99.90;;;;;;5028858;28;20475;-87
2022/10/09 10:49:50;;;;;;;;;;;14.80;99.90;;;;;;5010692;28;19928;-87
2022/10/09 10:52:27;;;;;;;;;;;15.00;99.90;;;;;;4993189;28;19921;-88
2022/10/09 10:55:09;;;;;;;;;;;15.00;99.90;;;;;;5010872;28;19967;-88
2022/10/09 10:57:48;;;;;;;;;;;15.10;99.90;;;;;;5028928;28;19921;-90
2022/10/09 11:00:15;;;;;;;;;;;15.10;99.90;;;;;;5012154;28;19921;-90
2022/10/09 11:02:48;;;;;;;;;;;15.10;99.90;;;;;;4998149;28;20479;-91
2022/10/09 11:05:17;;;;;;;;;;;15.10;99.90;;;;;;5013859;28;19921;-90
2022/10/09 11:08:02;;;;;;;;;;;15.20;99.90;;;;;;5016096;28;20011;-90
2022/10/09 11:10:42;;;;;;;;;;;15.20;99.90;;;;;;5016677;28;19921;-95
2022/10/09 11:13:16;;;;;;;;;;;15.30;99.90;;;;;;5021876;28;20544;-91
2022/10/09 11:15:55;;;;;;;;;;;15.40;99.90;;;;;;5022646;28;19928;-92
2022/10/09 11:18:40;;;;;;;;;;;15.40;99.90;;;;;;5021236;28;19921;-91
2022/10/09 11:21:06;;;;;;;;;;;15.40;99.90;;;;;;5020369;28;20380;-91
2022/10/09 11:23:40;;;;;;;;;;;15.40;99.90;;;;;;5015152;28;19936;-87
2022/10/09 11:26:21;;;;;;;;;;;15.50;99.90;;;;;;5017137;28;19943;-92
2022/10/09 11:28:58;;;;;;;;;;;15.50;99.90;;;;;;5015223;28;19936;-93
2022/10/09 11:31:29;;;;;;;;;;;15.60;99.90;;;;;;5012302;28;19952;-90
2022/10/09 11:33:58;;;;;;;;;;;15.70;99.90;;;;;;5012704;28;20225;-89
2022/10/09 11:36:24;;;;;;;;;;;15.70;99.90;;;;;;5029540;28;20388;-89
2022/10/09 11:39:17;;;;;;;;;;;15.70;99.90;;;;;;5011800;28;20288;-88
2022/10/09 11:41:45;;;;;;;;;;;15.80;99.90;;;;;;5015039;28;19928;-88
2022/10/09 11:44:31;;;;;;;;;;;15.90;99.90;;;;;;5014176;28;19921;-89
2022/10/09 11:46:57;;;;;;;;;;;16.10;99.90;;;;;;5011707;28;19921;-88
2022/10/09 11:49:34;;;;;;;;;;;16.10;99.90;;;;;;5028938;28;19928;-89
2022/10/09 11:52:00;;;;;;;;;;;16.20;99.90;;;;;;5015829;28;19973;-88
2022/10/09 11:54:26;;;;;;;;;;;16.10;99.90;;;;;;5016973;28;19921;-88
2022/10/09 11:56:59;;;;;;;;;;;16.10;99.90;;;;;;5003160;28;19921;-90
2022/10/09 11:59:30;;;;;;;;;;;16.20;99.90;;;;;;5037169;28;19921;-89
2022/10/09 12:02:14;;;;;;;;;;;16.20;99.90;;;;;;5026495;28;19924;-88
2022/10/09 12:04:40;;;;;;;;;;;16.20;99.90;;;;;;5042263;28;19927;-89
2022/10/09 12:07:08;;;;;;;;;;;16.20;99.90;;;;;;5024614;28;19920;-89
2022/10/09 12:09:35;;;;;;;;;;;16.20;99.90;;;;;;5024458;28;19931;-89
2022/10/09 12:12:02;;;;;;;;;;;16.30;99.90;;;;;;5031004;28;19959;-88
2022/10/09 12:14:28;;;;;;;;;;;16.30;99.90;;;;;;5047268;28;20316;-88
2022/10/09 12:16:55;;;;;;;;;;;16.30;99.90;;;;;;5029659;28;19932;-89
2022/10/09 12:19:22;;;;;;;;;;;16.40;99.90;;;;;;5030868;28;19921;-89
2022/10/09 12:21:50;;;;;;;;;;;16.50;99.90;;;;;;5030495;28;19929;-89
2022/10/09 12:24:21;;;;;;;;;;;16.50;99.90;;;;;;5028800;28;19931;-89
2022/10/09 12:26:48;;;;;;;;;;;16.60;99.90;;;;;;5028142;28;19917;-89
2022/10/09 12:29:34;;;;;;;;;;;16.70;99.90;;;;;;5027123;28;19974;-90
2022/10/09 12:32:13;;;;;;;;;;;16.70;99.90;;;;;;5021715;28;20368;-89
2022/10/09 12:34:45;;;;;;;;;;;16.90;99.90;;;;;;5018078;28;20074;-89
2022/10/09 12:37:12;;;;;;;;;;;17.00;99.90;;;;;;5031780;28;19984;-89
2022/10/09 12:39:38;;;;;;;;;;;16.90;99.90;;;;;;5032623;28;20363;-89
2022/10/09 12:42:03;;;;;;;;;;;16.90;99.90;;;;;;5002357;28;19967;-88
2022/10/09 12:44:31;;;;;;;;;;;16.90;99.90;;;;;;5027634;28;19924;-89
2022/10/09 12:47:07;;;;;;;;;;;16.90;99.90;;;;;;5031106;28;20425;-89
2022/10/09 12:49:33;;;;;;;;;;;16.50;99.90;;;;;;5039688;28;19920;-90
2022/10/09 12:51:59;;;;;;;;;;;17.00;99.90;;;;;;5005122;28;19924;-88
2022/10/09 12:54:27;;;;;;;;;;;17.00;99.90;;;;;;5004213;28;19921;-88
2022/10/09 12:56:54;;;;;;;;;;;16.90;99.90;;;;;;5019307;28;19921;-89
2022/10/09 12:59:19;;;;;;;;;;;16.80;99.90;;;;;;5018839;28;19925;-88
2022/10/09 13:01:46;;;;;;;;;;;16.80;99.90;;;;;;5000662;28;19921;-87
2022/10/09 13:04:38;;;;;;;;;;;16.80;99.90;;;;;;5032150;28;19952;-85
2022/10/09 13:07:18;;;;;;;;;;;16.90;99.90;;;;;;5028660;28;19920;-85
2022/10/09 13:09:44;;;;;;;;;;;16.90;99.90;;;;;;5048517;28;19920;-85
2022/10/09 13:12:16;;;;;;;;;;;17.00;99.90;;;;;;5031481;28;19927;-85
2022/10/09 13:14:51;;;;;;;;;;;17.10;99.90;;;;;;5014733;28;20023;-84
2022/10/09 13:17:23;;;;;;;;;;;17.10;99.90;;;;;;5031133;28;19925;-84
2022/10/09 13:19:50;;;;;;;;;;;17.10;99.90;;;;;;5031311;28;19924;-83
2022/10/09 13:22:17;;;;;;;;;;;17.20;99.90;;;;;;5014675;28;20006;-88
2022/10/09 13:24:43;;;;;;;;;;;17.20;99.90;;;;;;5015629;28;19927;-87
2022/10/09 13:27:10;;;;;;;;;;;17.20;99.90;;;;;;5014272;28;19924;-86
2022/10/09 13:29:35;;;;;;;;;;;17.20;99.90;;;;;;5014551;28;19921;-86
2022/10/09 13:32:02;;;;;;;;;;;17.30;99.90;;;;;;5030888;28;19928;-90
2022/10/09 13:34:27;;;;;;;;;;;17.30;99.90;;;;;;5015347;28;19920;-85
2022/10/09 13:36:54;;;;;;;;;;;17.30;99.90;;;;;;4998184;28;19921;-88
2022/10/09 13:39:20;;;;;;;;;;;17.30;99.90;;;;;;5013332;28;19928;-83
2022/10/09 13:41:47;;;;;;;;;;;17.30;99.90;;;;;;5013978;28;19921;-84
2022/10/09 13:44:13;;;;;;;;;;;17.30;99.90;;;;;;5013518;28;19963;-83
2022/10/09 13:46:38;;;;;;;;;;;17.30;99.90;;;;;;4997490;28;19975;-83
2022/10/09 13:49:04;;;;;;;;;;;17.40;99.90;;;;;;5048482;28;19956;-83
2022/10/09 13:51:30;;;;;;;;;;;17.40;99.90;;;;;;5029769;28;19960;-85
2022/10/09 13:53:56;;;;;;;;;;;17.50;99.90;;;;;;4997682;28;19921;-83
2022/10/09 13:56:22;;;;;;;;;;;17.50;99.90;;;;;;5029657;28;19921;-83
2022/10/09 13:58:47;;;;;;;;;;;17.60;99.90;;;;;;5013497;28;19928;-82
2022/10/09 14:01:13;;;;;;;;;;;17.60;99.90;;;;;;5029061;28;20466;-86
2022/10/09 14:03:39;;;;;;;;;;;17.60;99.90;;;;;;4997246;28;20004;-82
2022/10/09 14:06:05;;;;;;;;;;;17.50;99.90;;;;;;5029286;28;19924;-86
2022/10/09 14:08:30;;;;;;;;;;;17.40;99.90;;;;;;5030005;28;20413;-84
2022/10/09 14:10:58;;;;;;;;;;;17.40;99.90;;;;;;5030172;28;19928;-85
2022/10/09 14:13:24;;;;;;;;;;;17.30;99.90;;;;;;5029679;28;19921;-85
2022/10/09 14:15:51;;;;;;;;;;;17.30;99.90;;;;;;4996963;28;19942;-82
2022/10/09 14:18:18;;;;;;;;;;;17.30;99.90;;;;;;5047080;28;20303;-82
2022/10/09 14:20:43;;;;;;;;;;;17.30;99.90;;;;;;5047690;28;20337;-83
2022/10/09 14:23:10;;;;;;;;;;;17.20;99.90;;;;;;5047367;28;20334;-83
2022/10/09 14:25:35;;;;;;;;;;;17.20;99.90;;;;;;5047119;28;19968;-83
2022/10/09 14:28:01;;;;;;;;;;;17.20;99.90;;;;;;5047754;28;19920;-84
2022/10/09 14:30:26;;;;;;;;;;;17.10;99.90;;;;;;5013120;28;19975;-82
2022/10/09 14:33:02;;;;;;;;;;;17.10;99.90;;;;;;5047084;28;19972;-82
2022/10/09 14:35:28;;;;;;;;;;;17.00;99.90;;;;;;5011931;28;20276;-83